Logo AVAMET
Benvolgut visitant, si us plau, ingressa Recuperar contrasenya
AVAMET paisatges

Inforatge Castelló de la Plana PortCastelló

Dades diàries. Acumulats / Últims 30 dies disponibles

Data Temperatura (°C) Humitat rel. (%) Pressió rel. (hPa) Vent (km/h) Precipitació
Mínima Mitjana Màxima Amplitud
tèrmica
Mínima Mitjana Màxima Mínima Mitjana Màxima Predom. Mitjana Ràfega
màxima
Total
(mm)
Índex-n
Mínima Mitjana Màxima Mínima Mitjana Màxima n
0 a 1
P0 max
mm 5'
Dades mensuals acumulades fins l'últim dia disponible
11/2020 6,8 11,6 16,8 15,6 16,3 19,5 23,9 17,1 33 82 95 1.015 1.024 1.031   7,0 75,6 103,0
Dades anuals acumulades fins l'últim dia disponible
2020 1,6 14,7 26,1 18,8 11,2 22,5 31,4 29,8 23 75 99 991 1.018 1.035   7,5 90,1 525,4
Últims 30 dies disponibles
24-11-2020 7,6     11,4     16,6 9,0 72 84 90 1.020 1.023 1.027 OSO 2,9 14,5 0,0
23-11-2020 7,6     11,8     17,1 9,5 63 79 89 1.027 1.028 1.030 WNW 3,9 17,7 0,0
22-11-2020 6,8     11,8     16,8 10,0 60 76 87 1.027 1.028 1.030 WNW 3,9 19,3 0,0
21-11-2020 7,7     11,8     16,3 8,6 53 69 82 1.027 1.029 1.030 WNW 5,8 25,7 0,0
20-11-2020 9,4     14,4     20,1 10,7 33 63 87 1.026 1.028 1.029 NW 3,4 19,3 0,0
19-11-2020 13,2     16,7     20,1 6,9 73 83 90 1.028 1.029 1.031 WNW 3,5 17,7 0,0
18-11-2020 13,3     16,5     21,2 7,9 70 84 92 1.027 1.028 1.029 NW 2,9 16,1 0,0
17-11-2020 13,2     16,4     20,9 7,7 70 85 91 1.025 1.027 1.028 NW 4,7 20,9 0,0
16-11-2020 15,7     19,4     22,1 6,4 67 76 87 1.018 1.022 1.026 E 6,0 33,8 0,0
15-11-2020 11,7     17,4     23,9 12,2 62 82 95 1.018 1.019 1.021 SW 6,3 32,2 0,0
14-11-2020 13,2     16,2     19,7 6,5 75 86 91 1.020 1.021 1.023 NW 2,4 12,9 0,0
13-11-2020 12,1     15,3     18,8 6,7 76 86 91 1.021 1.022 1.023 WNW 3,5 19,3 0,0
12-11-2020 10,6     14,9     18,0 7,4 77 84 90 1.022 1.023 1.024 E 5,5 17,7 0,0
11-11-2020 11,3     15,3     19,3 8,0 73 83 90 1.023 1.025 1.028 WNW 3,4 16,1 0,0
10-11-2020 12,8     16,3     20,2 7,4 62 78 89 1.023 1.025 1.028 WNW 4,5 17,7 0,0
09-11-2020 10,4     15,0     19,9 9,5 65 84 92 1.021 1.022 1.024 NW 3,1 14,5 0,2
08-11-2020 10,7     15,2     20,4 9,7 68 83 92 1.022 1.023 1.025 WNW 3,1 19,3 0,0
07-11-2020 14,0     17,7     19,6 5,6 71 87 95 1.015 1.020 1.023 SW 14,6 54,7 9,2 0,35 2,10
06-11-2020 16,8     18,8     19,3 2,5 84 90 91 1.020 1.022 1.024 NNE 24,9 46,7 0,0
05-11-2020 12,8     16,1     18,1 5,3 76 86 95 1.020 1.024 1.026 NNE 29,3 75,6 81,0 0,23 9,80
04-11-2020 11,6     13,9     18,3 6,7 61 83 93 1.021 1.022 1.024 NNE 16,6 61,2 12,4 0,36 0,80
03-11-2020 14,0     18,2     20,0 6,0 61 79 91 1.023 1.024 1.026 ENE 8,4 30,6 0,0
02-11-2020 11,9     16,2     20,6 8,7 76 86 92 1.021 1.022 1.023 NW 3,4 17,7 0,2
01-11-2020 10,9     16,5     21,3 10,4 71 82 89 1.022 1.023 1.025 NW 2,3 17,7 0,0
31-10-2020 11,2     16,0     20,3 9,1 68 83 91 1.023 1.024 1.026 OSO 2,6 16,1 0,0
30-10-2020 11,9     15,8     20,3 8,4 70 80 87 1.025 1.026 1.027 WNW 2,6 19,3 0,0
29-10-2020 11,8     16,3     20,5 8,7 67 77 88 1.023 1.026 1.028 NW 4,2 19,3 0,0
28-10-2020 11,8     16,6     21,0 9,2 57 67 78 1.018 1.020 1.024 WNW 3,1 14,5 0,0
27-10-2020 8,3     15,7     20,0 11,7 37 54 69 1.016 1.018 1.019 WNW 6,1 22,5 0,0
26-10-2020 13,8     18,1     21,3 7,5 29 46 65 1.009 1.013 1.019 WNW 10,1 38,6 0,0
Últims 13 mesos disponibles
10/2020 8,3 13,8 18,3 18,6 18,5 22,8 28,2 19,9 44 64 84 997 1.017 1.026 WNW 7,0 69,2 6,0
09/2020 14,4 18,6 21,5 23,1 22,8 26,8 31,2 16,8 32 68 80 1.011 1.017 1.024 WNW 6,4 54,7 15,0
08/2020 16,4 22,2 26,1 26,3 25,8 29,4 31,4 15,0 54 74 84 1.005 1.014 1.020 E 6,9 35,4 8,6
07/2020 19,3 21,9 24,4 25,9 26,5 28,8 31,2 11,9 57 76 84 1.012 1.017 1.021 E 7,9 57,9 9,0
06/2020 14,0 18,2 22,1 22,4 21,9 25,7 29,8 15,8 44 74 84 1.004 1.015 1.021 E 7,6 51,5 41,2
05/2020 12,8 16,2 20,7 20,4 19,4 24,0 29,9 17,1 51 75 85 1.005 1.017 1.028 E 7,9 51,5 47,4
04/2020 7,5 12,4 17,2 15,7 14,1 19,1 28,0 20,5 53 82 93 1.005 1.016 1.026 E 7,5 51,5 132,6
03/2020 5,2 10,0 16,8 13,8 11,2 17,0 24,9 19,7 45 76 94 1.005 1.017 1.027 NE 11,3 77,2 106,0
02/2020 5,4 8,8 12,8 13,5 14,6 17,8 25,2 19,8 58 80 91 1.012 1.025 1.033 NW 4,9 53,1 0,6
01/2020 1,6 6,5 13,4 10,6 11,3 15,1 22,0 20,4 67 81 95 1.018 1.025 1.032 NW 8,2 90,1 56,0
12/2019 4,1 9,3 17,8 13,5 13,6 17,5 26,3 22,2 47 77 95 1.001 1.018 1.033 WNW 8,1 78,9 151,0
11/2019 5,6 11,6 19,6 15,7 14,9 19,8 27,6 22,0 42 59 85 996 1.009 1.018 SW 9,1 74,0 4,8
10/2019 10,9 15,7 21,0 19,8 17,3 23,8 28,3 17,4 51 75 90 1.006 1.016 1.022 NW 6,2 48,3 18,6
Tots els anys disponibles
2019 2,7 13,5 25,2 17,8 11,9 21,6 33,1 30,4 0 71 98 0 1.010 1.033 SO 8,1 95,0 288,6
Temperatura (°C)
Humitat relativa (%)
Velocitat del vent i ràfega màxima (km/h)
Direcció del vent (°)
Pressió (hPa)
Precipitació (mm)
Nota sobre les dades: s'avisa a l'usuari de la provisionalitat i no oficialitat d'aquestes dades
Logo AVAMET blanc
Web allotjada a Sollutia
Llicència de Creative CommonsLa web d'AVAMET i els seus continguts estan subjectes a una llicència de
Reconeixement - No Comercial - Compartir igual
Avís legal - Política de privacitat - Política de cookies
NOVES ESTACIONS: l'Alcúdia de Crespins/Canals - la Muntanyeta (Soci), Utiel - est (Soci), Xàbia - Cansalades (Soci), Alginet (Soci), Quatretondeta (Ajuntament Soci) Enguera - Benali (Soci/ADENE), la Vall d'Alba - sud (Ajuntament Soci), El Fondó dels Frares (Estació pròpia d'AVAMET nº34), Gandia - Ajuntament (Aj. Soci/Inforatge), Cullera (Inforatge) - - -